Time;durP1;ratioP1;P1;durP2;ratioP2;P2;SDS_P1;SDS_P2;PMS_P1;PMS_P2;Temp;Humidity;BMP_temperature;BMP_pressure;BME280_temperature;BME280_humidity;BME280_pressure;Samples;Min_cycle;Max_cycle;Signal;HPM_P1;HPM_P2
2022/06/01 00:02:16;;;;;;;63.03;33.22;;;;;;;11.57;77.26;101320.75;5010375;28;20029;-74
2022/06/01 00:04:42;;;;;;;66.05;35.33;;;;;;;11.56;77.81;101321.63;5010361;28;20053;-74
2022/06/01 00:07:07;;;;;;;64.78;34.50;;;;;;;11.59;78.21;101324.31;5009515;28;20481;-74
2022/06/01 00:09:33;;;;;;;68.05;35.08;;;;;;;11.56;77.77;101314.66;5011943;28;20029;-74
2022/06/01 00:11:58;;;;;;;72.85;37.20;;;;;;;11.57;78.61;101321.66;5011353;28;20026;-74
2022/06/01 00:14:23;;;;;;;70.25;36.63;;;;;;;11.55;78.37;101323.31;5011284;28;20030;-74
2022/06/01 00:16:55;;;;;;;69.75;35.55;;;;;;;11.57;77.69;101323.38;5007597;28;20366;-74
2022/06/01 00:19:20;;;;;;;67.30;35.90;;;;;;;11.53;77.36;101327.63;4992161;28;20030;-74
2022/06/01 00:24:29;;;;;;;67.95;34.13;;;;;;;11.46;77.12;101323.09;4992054;28;20084;-74
2022/06/01 00:26:55;;;;;;;60.60;32.83;;;;;;;11.43;76.96;101325.63;5002005;28;20117;-74
2022/06/01 00:29:20;;;;;;;61.55;33.47;;;;;;;11.40;77.13;101325.53;4991045;28;20022;-74
2022/06/01 00:31:45;;;;;;;62.65;34.25;;;;;;;11.37;77.39;101330.66;5001456;28;20030;-74
2022/06/01 00:34:11;;;;;;;69.00;35.08;;;;;;;11.28;77.68;101326.06;5010279;28;20022;-74
2022/06/01 00:36:36;;;;;;;67.60;34.60;;;;;;;11.26;77.68;101328.63;5009929;28;20037;-74
2022/06/01 00:39:01;;;;;;;65.45;34.90;;;;;;;11.29;77.92;101331.31;5003337;28;20033;-74
2022/06/01 00:41:29;;;;;;;66.47;35.15;;;;;;;11.25;78.19;101326.88;5010688;28;20103;-74
2022/06/01 00:43:54;;;;;;;66.50;33.92;;;;;;;11.28;78.45;101332.19;5010188;28;20033;-74
2022/06/01 00:46:19;;;;;;;64.22;34.38;;;;;;;11.29;78.76;101328.69;5008441;28;20400;-74
2022/06/01 00:48:49;;;;;;;72.57;36.63;;;;;;;11.28;79.05;101328.66;5011283;28;20038;-74
2022/06/01 00:51:19;;;;;;;69.38;35.67;;;;;;;11.27;78.64;101333.00;5010584;28;20109;-74
2022/06/01 00:53:45;;;;;;;67.75;35.60;;;;;;;11.28;78.63;101321.75;5010936;28;20125;-74
2022/06/01 00:56:16;;;;;;;66.13;33.38;;;;;;;11.26;78.74;101323.41;4980388;28;20065;-74
2022/06/01 00:58:44;;;;;;;66.32;35.05;;;;;;;11.25;78.54;101324.25;4987783;28;20011;-74
2022/06/01 01:01:13;;;;;;;71.43;36.20;;;;;;;11.24;78.29;101327.69;4986646;28;20058;-74
2022/06/01 01:03:43;;;;;;;70.60;36.85;;;;;;;11.23;78.32;101325.06;4981026;28;20030;-74
2022/06/01 01:06:11;;;;;;;;;;;;;;;11.39;76.98;101324.63;4984498;28;20025;-74
2022/06/01 01:08:37;;;;;;;77.15;37.28;;;;;;;11.25;78.27;101321.66;4991049;28;19918;-74
2022/06/01 01:11:06;;;;;;;79.43;37.40;;;;;;;11.24;78.86;101322.50;4991158;28;20516;-74
2022/06/01 01:13:31;;;;;;;72.22;36.22;;;;;;;11.25;79.03;101326.88;4988368;28;20026;-74
2022/06/01 01:15:59;;;;;;;72.63;37.70;;;;;;;11.23;79.31;101322.44;4989541;28;20058;-74
2022/06/01 01:18:31;;;;;;;74.78;38.50;;;;;;;11.27;79.15;101321.69;4991137;28;20389;-74
2022/06/01 01:21:27;;;;;;;77.60;39.08;;;;;;;11.29;79.07;101323.47;4981065;28;20483;-74
2022/06/01 01:24:22;;;;;;;83.47;38.45;;;;;;;11.37;78.99;101320.22;4990950;28;20038;-74
2022/06/01 01:26:50;;;;;;;80.60;37.88;;;;;;;11.35;79.81;101322.78;4988237;28;20038;-74
2022/06/01 01:29:29;;;;;;;82.15;38.60;;;;;;;11.34;79.73;101314.91;4990913;28;20030;-74
2022/06/01 01:31:54;;;;;;;86.70;39.85;;;;;;;11.38;79.55;101312.41;4990497;28;20122;-73
2022/06/01 01:34:19;;;;;;;85.13;39.17;;;;;;;11.40;79.52;101312.50;4990344;28;20077;-74
2022/06/01 01:36:50;;;;;;;84.65;39.72;;;;;;;11.42;79.69;101308.19;4989065;28;20030;-74
2022/06/01 01:39:16;;;;;;;85.60;39.95;;;;;;;11.41;79.17;101304.72;4990847;28;20022;-74
2022/06/01 01:41:46;;;;;;;82.95;39.13;;;;;;;11.41;79.81;101306.41;4989940;28;20564;-74
2022/06/01 01:44:17;;;;;;;;;;;;;;;11.56;77.86;101311.19;4991332;28;20093;-74
2022/06/01 01:46:47;;;;;;;80.45;36.65;;;;;;;11.43;78.98;101309.97;4984317;28;19917;-74
2022/06/01 01:49:14;;;;;;;83.53;38.55;;;;;;;11.41;78.89;101320.38;4988548;28;20461;-74
2022/06/01 01:51:39;;;;;;;85.15;39.53;;;;;;;11.39;79.35;101315.94;4986802;28;20034;-74
2022/06/01 01:54:18;;;;;;;78.38;38.42;;;;;;;11.38;78.71;101316.75;4983707;28;20051;-74
2022/06/01 01:57:02;;;;;;;81.88;38.70;;;;;;;11.38;78.89;101319.38;4991146;28;20036;-74
2022/06/01 01:59:47;;;;;;;89.05;40.08;;;;;;;11.36;79.71;101321.06;4987974;28;20049;-74
2022/06/01 02:02:22;;;;;;;85.18;38.88;;;;;;;11.35;79.71;101321.91;4987231;28;20034;-74
2022/06/01 02:08:05;;;;;;;90.68;39.85;;;;;;;11.42;79.19;101318.63;4988736;28;20045;-74
2022/06/01 02:13:17;;;;;;;86.40;40.83;;;;;;;11.39;79.08;101321.16;4990238;28;20041;-74
2022/06/01 02:15:46;;;;;;;97.97;42.40;;;;;;;11.37;79.79;101318.50;4989368;28;20026;-74
2022/06/01 02:18:20;;;;;;;93.45;41.22;;;;;;;11.36;78.95;101318.47;4986161;28;20058;-74
2022/06/01 02:20:51;;;;;;;89.28;40.30;;;;;;;11.36;79.11;101318.47;4988295;28;20387;-74
2022/06/01 02:23:17;;;;;;;89.57;41.33;;;;;;;11.33;79.01;101319.25;4983190;28;20037;-74
2022/06/01 02:25:45;;;;;;;87.68;42.22;;;;;;;11.32;78.78;101317.47;4989640;28;20076;-74
2022/06/01 02:28:11;;;;;;;98.43;43.22;;;;;;;11.30;78.69;101314.81;4982017;28;20089;-74
2022/06/01 02:30:40;;;;;;;96.05;42.30;;;;;;;11.31;79.10;101320.91;4990673;28;20548;-74
2022/06/01 02:33:13;;;;;;;94.78;42.63;;;;;;;11.31;78.56;101321.81;4983045;28;20018;-74
2022/06/01 02:35:43;;;;;;;93.28;42.30;;;;;;;11.30;78.56;101325.25;4977884;28;20050;-74
2022/06/01 02:38:14;;;;;;;98.20;44.92;;;;;;;11.28;78.84;101324.34;4990382;28;20105;-74
2022/06/01 02:40:40;;;;;;;91.97;43.13;;;;;;;11.28;78.65;101323.44;4989974;28;20077;-74
2022/06/01 02:43:05;;;;;;;92.40;41.45;;;;;;;11.27;78.52;101319.97;4984322;28;20022;-74
2022/06/01 02:45:30;;;;;;;92.63;42.17;;;;;;;11.28;78.04;101310.41;4987401;28;20238;-74
2022/06/01 02:47:59;;;;;;;97.28;42.53;;;;;;;11.26;78.61;101317.31;4974340;28;20090;-74
2022/06/01 02:50:27;;;;;;;83.43;40.83;;;;;;;11.27;77.82;101325.19;4990522;28;20516;-74
2022/06/01 02:52:53;;;;;;;92.82;40.70;;;;;;;11.23;77.36;101318.09;4980464;28;20429;-74
2022/06/01 02:55:21;;;;;;;85.47;39.63;;;;;;;11.21;78.10;101319.78;4993241;28;20050;-74
2022/06/01 02:57:47;;;;;;;87.78;41.03;;;;;;;11.16;77.48;101318.75;4989896;28;20084;-74
2022/06/01 03:00:17;;;;;;;93.60;42.20;;;;;;;11.15;77.73;101324.81;4987754;28;20030;-74
2022/06/01 03:02:44;;;;;;;90.53;40.75;;;;;;;11.11;77.80;101312.56;4993252;28;20143;-74
2022/06/01 03:05:10;;;;;;;91.57;40.70;;;;;;;11.07;77.45;101315.91;4993620;28;20520;-74
2022/06/01 03:07:36;;;;;;;82.22;39.15;;;;;;;11.04;77.43;101314.09;4982002;28;20039;-74
2022/06/01 03:10:01;;;;;;;86.75;39.15;;;;;;;11.03;77.99;101316.66;4983298;28;20034;-74
2022/06/01 03:12:26;;;;;;;86.43;38.20;;;;;;;10.97;77.79;101319.97;4993581;28;20030;-74
2022/06/01 03:14:52;;;;;;;86.63;38.88;;;;;;;10.96;77.83;101320.78;4992755;28;20022;-74
2022/06/01 03:17:17;;;;;;;84.35;39.25;;;;;;;10.91;77.74;101323.25;4988979;28;20065;-74
2022/06/01 03:19:42;;;;;;;90.45;39.40;;;;;;;10.88;77.88;101319.69;4990769;28;20177;-74
2022/06/01 03:22:08;;;;;;;87.38;39.00;;;;;;;10.88;77.78;101320.56;4991696;28;20449;-74
2022/06/01 03:24:33;;;;;;;85.07;38.30;;;;;;;10.92;77.21;101321.53;4993309;28;20034;-74
2022/06/01 03:26:59;;;;;;;85.22;38.25;;;;;;;10.90;77.41;101316.28;4992136;28;20633;-74
2022/06/01 03:29:24;;;;;;;86.60;38.00;;;;;;;10.91;77.48;101310.22;4988791;28;20396;-74
2022/06/01 03:31:51;;;;;;;79.88;36.33;;;;;;;10.88;77.57;101317.97;4991981;28;20397;-74
2022/06/01 03:34:17;;;;;;;79.60;36.67;;;;;;;10.84;77.44;101315.22;4992454;28;20038;-74
2022/06/01 03:36:42;;;;;;;78.80;36.88;;;;;;;10.76;77.77;101320.19;4993130;28;20088;-73
2022/06/01 03:39:08;;;;;;;82.53;37.33;;;;;;;10.75;77.57;101324.53;4987516;28;20403;-74
2022/06/01 03:41:33;;;;;;;81.60;36.50;;;;;;;10.73;77.64;101321.00;4992866;28;20045;-74
2022/06/01 03:46:42;;;;;;;72.25;33.97;;;;;;;10.70;77.65;101325.22;4992361;28;20076;-73
2022/06/01 03:49:07;;;;;;;67.80;33.88;;;;;;;10.69;77.69;101328.66;4991766;28;20054;-74
2022/06/01 03:51:32;;;;;;;74.28;34.83;;;;;;;10.67;77.68;101328.59;4992881;28;20018;-74
2022/06/01 03:53:58;;;;;;;69.80;33.67;;;;;;;10.67;77.31;101331.22;4991759;28;20042;-74
2022/06/01 03:56:23;;;;;;;66.38;32.08;;;;;;;10.66;77.30;101329.47;4992699;28;20537;-73
2022/06/01 03:58:50;;;;;;;65.93;32.47;;;;;;;10.68;77.53;101329.50;4973348;28;20077;-74
2022/06/01 04:01:17;;;;;;;70.85;32.95;;;;;;;10.67;77.83;101330.34;4981236;28;20018;-74
2022/06/01 04:03:43;;;;;;;68.13;33.28;;;;;;;10.67;77.61;101338.16;4992370;28;20026;-75
2022/06/01 04:06:08;;;;;;;67.38;31.27;;;;;;;10.67;77.78;101327.72;4991725;28;20089;-74
2022/06/01 04:08:34;;;;;;;69.20;32.72;;;;;;;10.68;77.53;101333.00;4991394;28;20413;-73
2022/06/01 04:10:59;;;;;;;67.75;33.00;;;;;;;10.63;77.60;101334.59;4983230;28;20397;-73
2022/06/01 04:13:27;;;;;;;65.88;32.10;;;;;;;10.65;77.64;101334.63;4992350;28;20034;-74
2022/06/01 04:15:52;;;;;;;70.90;32.03;;;;;;;10.64;77.82;101335.47;4991698;28;20030;-73
2022/06/01 04:18:18;;;;;;;65.07;31.60;;;;;;;10.66;77.66;101338.97;4989655;28;20026;-74
2022/06/01 04:20:44;;;;;;;65.47;29.83;;;;;;;10.65;77.74;101339.84;4989819;28;20022;-74
2022/06/01 04:23:11;;;;;;;66.68;30.77;;;;;;;10.66;77.35;101344.19;4991307;28;20034;-74
2022/06/01 04:25:36;;;;;;;64.65;29.75;;;;;;;10.65;77.73;101339.84;4992007;28;20030;-73
2022/06/01 04:28:02;;;;;;;63.22;29.83;;;;;;;10.63;77.67;101344.09;4983849;28;20086;-74
2022/06/01 04:30:27;;;;;;;66.07;30.48;;;;;;;10.57;77.89;101348.31;5002464;28;20027;-74
2022/06/01 04:32:54;;;;;;;65.82;29.85;;;;;;;10.57;77.98;101340.50;4991000;28;20629;-74
2022/06/01 04:35:21;;;;;;;58.25;30.17;;;;;;;10.57;77.79;101340.50;4987513;28;20034;-74
2022/06/01 04:37:47;;;;;;;64.20;31.15;;;;;;;10.59;77.93;101332.72;4991675;28;20096;-74
2022/06/01 04:40:13;;;;;;;61.60;30.27;;;;;;;10.61;78.25;101337.13;4976105;28;20114;-74
2022/06/01 04:42:40;;;;;;;65.10;30.42;;;;;;;10.63;78.36;101345.00;4991144;28;20034;-74
2022/06/01 04:45:08;;;;;;;61.25;30.23;;;;;;;10.62;78.42;101338.03;4989580;28;20057;-73
2022/06/01 04:47:33;;;;;;;60.55;29.33;;;;;;;10.62;78.52;101345.84;4991685;28;20101;-74
2022/06/01 04:49:58;;;;;;;61.22;30.05;;;;;;;10.63;78.49;101345.00;4986701;28;20118;-74
2022/06/01 04:52:24;;;;;;;58.17;29.08;;;;;;;10.65;78.91;101339.84;4991615;28;20113;-74
2022/06/01 04:54:50;;;;;;;64.05;28.83;;;;;;;10.67;79.37;101346.84;4990734;28;20506;-74
2022/06/01 04:57:16;;;;;;;63.33;29.05;;;;;;;10.69;78.97;101344.28;4991313;28;20034;-73
2022/06/01 04:59:41;;;;;;;60.65;29.08;;;;;;;10.69;79.53;101350.41;4985582;28;20031;-74
2022/06/01 05:02:06;;;;;;;57.13;28.27;;;;;;;10.73;78.75;101349.66;4989920;28;20512;-74
2022/06/01 05:07:07;;;;;;;65.13;29.98;;;;;;;10.70;79.80;101352.19;5001423;23;20057;-96
2022/06/01 05:09:33;;;;;;;53.78;27.83;;;;;;;10.72;79.78;101349.63;4995717;28;20105;-96
2022/06/01 05:11:59;;;;;;;54.25;25.67;;;;;;;10.73;79.11;101343.56;4991083;28;20534;-96
2022/06/01 05:14:32;;;;;;;57.35;26.50;;;;;;;10.76;79.44;101346.25;4979809;28;20476;-96
2022/06/01 05:16:59;;;;;;;58.85;27.23;;;;;;;10.80;79.53;101350.72;5009650;23;20014;-72
2022/06/01 05:19:24;;;;;;;58.85;27.15;;;;;;;10.83;79.19;101345.59;5009106;28;20396;-72
2022/06/01 05:21:49;;;;;;;50.58;25.58;;;;;;;10.85;79.25;101346.56;4998361;28;20105;-72
2022/06/01 05:24:15;;;;;;;58.25;26.60;;;;;;;10.86;79.02;101350.94;5008895;28;20116;-72
2022/06/01 05:26:40;;;;;;;52.13;24.40;;;;;;;10.86;79.41;101348.31;5000127;28;20105;-72
2022/06/01 05:29:06;;;;;;;52.67;24.92;;;;;;;10.87;79.34;101350.06;4999458;28;20072;-73
2022/06/01 05:31:31;;;;;;;53.50;24.95;;;;;;;10.88;79.08;101350.97;5005428;28;20417;-72
2022/06/01 05:33:56;;;;;;;50.90;25.30;;;;;;;10.86;80.32;101356.16;4989811;28;20073;-72
2022/06/01 05:36:22;;;;;;;51.45;24.38;;;;;;;10.90;79.82;101357.97;4992303;28;20050;-72
2022/06/01 05:38:47;;;;;;;54.72;25.75;;;;;;;10.91;80.12;101351.94;5004471;28;20056;-72
2022/06/01 05:41:13;;;;;;;53.50;24.80;;;;;;;10.95;79.88;101356.41;4995312;28;20022;-72
2022/06/01 05:43:38;;;;;;;52.03;25.10;;;;;;;10.97;81.20;101361.69;4992370;28;20509;-72
2022/06/01 05:46:04;;;;;;;53.05;26.05;;;;;;;11.01;80.01;101357.41;4996570;28;20018;-72
2022/06/01 05:48:30;;;;;;;61.00;25.40;;;;;;;11.05;80.71;101351.47;4999965;28;20045;-73
2022/06/01 05:50:56;;;;;;;52.85;25.17;;;;;;;11.07;81.45;101349.81;4990942;28;20557;-73
2022/06/01 05:53:21;;;;;;;56.60;25.27;;;;;;;11.08;81.52;101349.84;4999501;28;20034;-73
2022/06/01 05:55:47;;;;;;;56.10;25.60;;;;;;;11.13;80.83;101353.47;4989542;28;20018;-73
2022/06/01 05:58:19;;;;;;;53.55;23.48;;;;;;;11.23;79.94;101356.34;4997599;28;20481;-73
2022/06/01 06:00:46;;;;;;;55.95;26.10;;;;;;;11.29;80.18;101362.63;4990710;28;20114;-74
2022/06/01 06:03:12;;;;;;;53.10;24.88;;;;;;;11.38;80.89;101356.78;5007245;28;20025;-73
2022/06/01 06:08:22;;;;;;;55.13;26.58;;;;;;;11.60;81.66;101365.22;5005209;28;20045;-74
2022/06/01 06:10:48;;;;;;;53.03;25.88;;;;;;;11.65;81.34;101364.50;5010579;28;20033;-74
2022/06/01 06:13:13;;;;;;;59.15;26.25;;;;;;;11.74;81.01;101368.22;5007877;28;20033;-74
2022/06/01 06:15:38;;;;;;;51.30;23.60;;;;;;;11.80;80.72;101368.38;5009726;28;20527;-75
2022/06/01 06:18:04;;;;;;;59.47;27.08;;;;;;;11.91;81.29;101366.06;5009385;28;20735;-74
2022/06/01 06:20:29;;;;;;;56.28;25.00;;;;;;;11.98;80.97;101366.28;5010278;28;20030;-74
2022/06/01 06:22:55;;;;;;;58.08;26.60;;;;;;;12.05;81.62;101364.72;5008261;28;20026;-74
2022/06/01 06:25:20;;;;;;;49.65;24.08;;;;;;;12.12;80.40;101370.97;5009791;28;20493;-74
2022/06/01 06:27:46;;;;;;;54.47;23.33;;;;;;;12.17;80.19;101379.84;5010888;28;20413;-74
2022/06/01 06:30:11;;;;;;;54.67;23.85;;;;;;;12.22;80.17;101383.44;5012368;28;20489;-74
2022/06/01 06:32:37;;;;;;;51.25;23.23;;;;;;;12.28;81.13;101383.59;5011470;28;20083;-74
2022/06/01 06:35:03;;;;;;;49.42;23.73;;;;;;;12.34;79.82;101390.72;5013801;28;20036;-74
2022/06/01 06:37:28;;;;;;;50.20;22.75;;;;;;;12.41;76.90;101391.75;5013088;28;20509;-74
2022/06/01 06:39:53;;;;;;;50.35;23.75;;;;;;;12.49;81.10;101390.22;5012357;28;20065;-74
2022/06/01 06:42:19;;;;;;;49.85;23.25;;;;;;;12.54;80.76;101396.41;5013596;28;20197;-74
2022/06/01 06:44:44;;;;;;;50.00;21.05;;;;;;;12.61;78.99;101398.31;5012943;28;20032;-74
2022/06/01 06:47:09;;;;;;;40.33;19.40;;;;;;;12.65;77.53;101399.31;5013529;28;20029;-75
2022/06/01 06:49:36;;;;;;;48.42;21.92;;;;;;;12.69;79.40;101406.38;5012832;28;20049;-75
2022/06/01 06:52:01;;;;;;;43.17;21.77;;;;;;;12.75;80.38;101408.25;5013331;28;20374;-76
2022/06/01 06:54:27;;;;;;;41.80;22.17;;;;;;;12.81;79.66;101416.25;5012570;28;20028;-75
2022/06/01 06:56:52;;;;;;;43.33;21.80;;;;;;;12.86;80.67;101411.97;5011685;28;20511;-75
2022/06/01 06:59:17;;;;;;;46.13;22.90;;;;;;;12.92;79.76;101408.63;5011786;28;20030;-76
2022/06/01 07:01:43;;;;;;;45.33;22.10;;;;;;;12.96;80.05;101414.00;5013526;28;20029;-76
2022/06/01 07:04:09;;;;;;;40.90;21.33;;;;;;;13.02;80.22;101414.13;5011131;28;20108;-76
2022/06/01 07:06:35;;;;;;;37.70;18.48;;;;;;;13.09;79.54;101415.13;5013018;28;20037;-76
2022/06/01 07:09:00;;;;;;;36.65;17.83;;;;;;;13.13;78.03;101411.72;5010937;28;20030;-77
2022/06/01 07:11:28;;;;;;;35.22;18.05;;;;;;;13.20;78.28;101423.22;5012327;28;20030;-75
2022/06/01 07:13:54;;;;;;;39.15;19.38;;;;;;;13.22;77.74;101417.19;5012019;28;20105;-74
2022/06/01 07:16:26;;;;;;;44.50;21.30;;;;;;;13.29;79.12;101419.94;5011363;28;20112;-73
2022/06/01 07:18:52;;;;;;;41.97;20.55;;;;;;;13.35;80.32;101421.00;5010213;28;20131;-74
2022/06/01 07:21:19;;;;;;;35.30;19.00;;;;;;;13.42;79.04;101426.34;5012451;28;20029;-74
2022/06/01 07:23:46;;;;;;;30.70;18.23;;;;;;;13.47;78.89;101420.38;5011416;28;20140;-74
2022/06/01 07:26:15;;;;;;;36.55;17.88;;;;;;;13.48;76.27;101416.88;5010824;28;20025;-74
2022/06/01 07:28:41;;;;;;;34.13;18.70;;;;;;;13.48;77.16;101416.88;5010469;28;20406;-74
2022/06/01 07:31:07;;;;;;;33.70;18.33;;;;;;;13.48;77.29;101416.00;5012502;28;20037;-74
2022/06/01 07:33:33;;;;;;;35.85;18.27;;;;;;;13.48;77.99;101419.50;5012701;28;20400;-74
2022/06/01 07:36:02;;;;;;;33.00;18.40;;;;;;;13.53;77.57;101419.59;5012125;28;20026;-74
2022/06/01 07:44:10;;;;;;;34.35;20.33;;;;;;;13.68;77.00;101426.88;5012597;28;20069;-74
2022/06/01 07:46:36;;;;;;;34.97;20.05;;;;;;;13.74;78.92;101419.13;5009147;28;20077;-76
2022/06/01 07:49:03;;;;;;;34.35;20.90;;;;;;;13.79;78.23;101413.97;5010664;28;20030;-76
2022/06/01 07:51:29;;;;;;;34.75;19.98;;;;;;;13.85;78.35;101415.00;5012083;28;20087;-75
2022/06/01 07:53:55;;;;;;;34.13;19.63;;;;;;;13.92;78.92;101418.63;5012257;28;20021;-76
2022/06/01 07:56:20;;;;;;;32.17;19.58;;;;;;;13.95;76.44;101412.53;5011441;28;20715;-76
2022/06/01 07:58:45;;;;;;;34.20;20.10;;;;;;;13.96;76.24;101425.72;5009954;28;20607;-76
2022/06/01 08:01:11;;;;;;;29.50;16.67;;;;;;;13.96;75.90;101415.22;5011439;28;20025;-76
2022/06/01 08:03:36;;;;;;;26.10;15.18;;;;;;;13.95;74.91;101426.53;5011979;28;20026;-76
2022/06/01 08:06:02;;;;;;;29.00;16.60;;;;;;;13.96;75.01;101423.09;5010079;28;20040;-76
2022/06/01 08:08:28;;;;;;;24.08;13.60;;;;;;;13.99;73.34;101425.75;5010710;28;20025;-76
2022/06/01 08:10:53;;;;;;;25.38;15.82;;;;;;;13.99;72.29;101423.13;5010068;28;20034;-76
2022/06/01 08:13:19;;;;;;;29.38;17.30;;;;;;;14.07;73.91;101429.38;5008888;28;20026;-76
2022/06/01 08:15:47;;;;;;;27.67;15.20;;;;;;;14.08;74.02;101418.06;5011127;28;20037;-77
2022/06/01 08:18:17;;;;;;;27.98;16.58;;;;;;;14.12;74.36;101429.50;5011116;28;20061;-73
2022/06/01 08:20:43;;;;;;;30.08;16.42;;;;;;;14.15;72.76;101429.53;5007878;28;20525;-73
2022/06/01 08:23:09;;;;;;;25.25;15.98;;;;;;;14.24;75.01;101431.44;5011193;28;20024;-73
2022/06/01 08:25:35;;;;;;;27.92;17.20;;;;;;;14.33;76.01;101426.34;5010853;28;20041;-73
2022/06/01 08:28:02;;;;;;;31.33;16.98;;;;;;;14.37;74.51;101422.06;5008476;28;20022;-74
2022/06/01 08:30:29;;;;;;;29.88;17.75;;;;;;;14.38;71.97;101419.47;5010323;28;20033;-74
2022/06/01 08:32:55;;;;;;;28.85;17.80;;;;;;;14.41;71.04;101414.28;5010908;28;20025;-74
2022/06/01 08:35:25;;;;;;;26.63;17.15;;;;;;;14.46;72.19;101413.47;5010646;28;20038;-74
2022/06/01 08:37:51;;;;;;;23.25;13.45;;;;;;;14.46;69.54;101411.72;5010765;28;20022;-73
2022/06/01 08:40:22;;;;;;;21.23;13.25;;;;;;;14.51;68.63;101414.41;5009282;28;20029;-74
2022/06/01 08:43:11;;;;;;;22.98;14.70;;;;;;;14.54;69.35;101417.97;5009926;28;21022;-74
2022/06/01 08:45:36;;;;;;;;;;;;;;;14.60;70.73;101419.81;5010138;28;20478;-73
2022/06/01 08:48:03;;;;;;;17.85;11.88;;;;;;;14.67;68.27;101411.22;5009398;28;19917;-74
2022/06/01 08:50:32;;;;;;;18.25;12.18;;;;;;;14.72;66.97;101414.78;5009066;28;20674;-74
2022/06/01 08:53:00;;;;;;;18.83;12.65;;;;;;;14.80;67.76;101416.66;5011060;28;20049;-74
2022/06/01 08:55:42;;;;;;;23.10;13.82;;;;;;;14.86;68.21;101419.38;5010139;28;20041;-74
2022/06/01 08:58:15;;;;;;;23.00;13.90;;;;;;;14.87;65.89;101429.00;5010472;28;20030;-74
2022/06/01 09:00:58;;;;;;;21.25;15.05;;;;;;;14.82;65.74;101420.19;5008151;28;20101;-74
2022/06/01 09:03:35;;;;;;;28.65;16.75;;;;;;;14.80;67.49;101416.66;5010983;28;20092;-74
2022/06/01 09:06:11;;;;;;;22.40;14.60;;;;;;;14.81;66.27;101428.91;5008647;28;20029;-74
2022/06/01 09:08:46;;;;;;;24.40;14.73;;;;;;;14.86;66.93;101427.22;5008255;28;20038;-74
2022/06/01 09:11:17;;;;;;;21.65;14.55;;;;;;;14.93;67.43;101430.00;5010534;28;20480;-74
2022/06/01 09:13:48;;;;;;;23.60;14.65;;;;;;;15.01;67.09;101427.47;5010153;28;20025;-74
2022/06/01 09:16:22;;;;;;;20.95;13.30;;;;;;;15.00;64.38;101425.69;5007959;28;21096;-74
2022/06/01 09:18:53;;;;;;;21.55;13.60;;;;;;;15.01;64.89;101421.34;5008481;28;20049;-74
2022/06/01 09:24:06;;;;;;;20.33;14.30;;;;;;;15.02;65.83;101417.84;5010334;28;20096;-75
2022/06/01 09:26:31;;;;;;;19.63;13.57;;;;;;;15.03;64.06;101425.75;5009222;28;20435;-74
2022/06/01 09:28:59;;;;;;;20.15;13.55;;;;;;;15.00;63.44;101436.19;5007896;28;20022;-74
2022/06/01 09:31:37;;;;;;;24.27;16.58;;;;;;;14.98;67.05;101451.06;5009023;28;20033;-74
2022/06/01 09:34:15;;;;;;;14.73;9.20;;;;;;;14.91;67.15;101447.44;5008525;28;20493;-74
2022/06/01 09:37:17;;;;;;;14.90;10.10;;;;;;;14.86;67.38;101442.97;5008894;28;20493;-74
2022/06/01 09:40:00;;;;;;;18.25;11.93;;;;;;;14.81;68.16;101442.91;4971187;28;20030;-74
2022/06/01 09:42:41;;;;;;;16.42;11.13;;;;;;;14.76;68.99;101437.59;5009766;28;20116;-74
2022/06/01 09:45:23;;;;;;;15.02;10.50;;;;;;;14.71;68.21;101448.88;5009742;28;20612;-74
2022/06/01 09:47:50;;;;;;;16.77;11.40;;;;;;;14.64;67.33;101450.50;5008489;28;20033;-74
2022/06/01 09:50:21;;;;;;;15.95;11.32;;;;;;;14.57;67.78;101457.38;5007290;28;20029;-74
2022/06/01 09:52:48;;;;;;;15.13;10.82;;;;;;;14.54;67.43;101461.66;5007880;28;20026;-74
2022/06/01 09:55:20;;;;;;;17.33;11.75;;;;;;;14.48;67.25;101454.56;5008681;28;20037;-74
2022/06/01 09:58:01;;;;;;;13.13;9.57;;;;;;;14.43;67.03;101451.88;5008115;28;20044;-79
2022/06/01 10:06:25;;;;;;;16.98;9.57;;;;;;;14.39;69.61;101467.53;5014011;28;20056;-79
2022/06/01 10:09:13;;;;;;;14.82;7.55;;;;;;;14.34;70.74;101479.66;5014601;28;20069;-79
2022/06/01 10:11:46;;;;;;;13.45;7.95;;;;;;;14.26;71.50;101500.50;5013706;28;20378;-79
2022/06/01 10:14:18;;;;;;;17.38;9.75;;;;;;;14.20;69.85;101511.75;5013422;28;20037;-79
2022/06/01 10:16:49;;;;;;;23.50;10.70;;;;;;;14.12;73.01;101518.59;5013445;28;20087;-79
2022/06/01 10:19:20;;;;;;;28.25;12.68;;;;;;;13.99;72.52;101535.81;5013414;28;20042;-79
2022/06/01 10:25:16;;;;;;;21.55;13.65;;;;;;;13.79;69.30;101531.84;5013148;23;20406;-66
2022/06/01 10:27:55;;;;;;;23.35;15.15;;;;;;;13.60;70.02;101547.19;4992798;28;20084;-66
2022/06/01 10:30:25;;;;;;;25.23;15.35;;;;;;;13.47;72.79;101545.13;4992512;28;20068;-66
2022/06/01 10:33:18;;;;;;;24.27;15.60;;;;;;;13.38;73.57;101533.63;4991144;28;20121;-66
2022/06/01 10:36:03;;;;;;;22.15;13.02;;;;;;;13.32;73.60;101520.31;4975278;28;20110;-66
2022/06/01 10:39:05;;;;;;;19.38;11.35;;;;;;;13.28;73.35;101507.13;4991040;28;20401;-66
2022/06/01 10:41:39;;;;;;;19.80;11.10;;;;;;;13.26;75.35;101491.41;4993466;28;20445;-66
2022/06/01 10:44:12;;;;;;;19.13;11.43;;;;;;;13.20;76.24;101501.72;4994172;28;20034;-65
2022/06/01 10:46:58;;;;;;;21.85;12.13;;;;;;;13.21;77.26;101493.03;4993046;28;20026;-66
2022/06/01 10:49:48;;;;;;;17.30;11.32;;;;;;;13.27;75.93;101495.78;4980304;28;20058;-70
2022/06/01 10:52:26;;;;;;;20.73;12.93;;;;;;;13.30;77.76;101490.63;4989747;28;20031;-70
2022/06/01 10:54:54;;;;;;;25.52;16.20;;;;;;;13.38;81.11;101501.28;4988910;28;20061;-70
2022/06/01 10:57:21;;;;;;;24.33;16.40;;;;;;;13.52;80.25;101493.75;4982049;28;20100;-70
2022/06/01 10:59:48;;;;;;;25.65;16.30;;;;;;;13.71;83.18;101497.66;4983794;28;20521;-70
2022/06/01 11:02:26;;;;;;;20.88;13.65;;;;;;;13.84;78.88;101497.06;4979965;28;20027;-71
2022/06/01 11:05:23;;;;;;;21.90;12.37;;;;;;;13.94;76.51;101494.63;4990763;28;20092;-72
2022/06/01 11:08:15;;;;;;;18.38;12.93;;;;;;;14.00;77.89;101489.50;4971612;28;20034;-71
2022/06/01 11:10:59;;;;;;;23.65;14.35;;;;;;;14.02;77.10;101496.56;4965851;28;20031;-71
2022/06/01 11:13:51;;;;;;;21.67;14.43;;;;;;;14.02;75.89;101487.78;4987466;28;20038;-70
2022/06/01 11:16:55;;;;;;;20.65;13.93;;;;;;;14.03;75.97;101484.31;4978847;28;20026;-73
2022/06/01 11:19:42;;;;;;;24.15;14.75;;;;;;;14.07;77.70;101478.31;4980849;28;20493;-74
2022/06/01 11:22:14;;;;;;;22.02;14.68;;;;;;;14.08;76.92;101483.56;4981481;28;20027;-74
2022/06/01 11:25:05;;;;;;;22.95;15.20;;;;;;;14.12;78.64;101486.25;4983708;28;20047;-74
2022/06/01 11:27:36;;;;;;;22.60;13.95;;;;;;;14.17;78.42;101487.22;4985620;28;20116;-74
2022/06/01 11:30:24;;;;;;;20.35;13.98;;;;;;;14.22;78.17;101496.03;4958898;28;20172;-75
2022/06/01 11:33:15;;;;;;;18.30;12.05;;;;;;;14.26;76.01;101501.41;4971314;28;20026;-74
2022/06/01 11:35:50;;;;;;;18.48;11.55;;;;;;;14.29;76.14;101503.16;4974460;28;20023;-76
2022/06/01 11:38:30;;;;;;;15.93;10.65;;;;;;;14.35;74.44;101512.91;4973171;28;20510;-75
2022/06/01 11:41:05;;;;;;;15.98;10.88;;;;;;;14.46;78.10;101508.75;4974882;28;20030;-74
2022/06/01 11:44:13;;;;;;;12.63;8.52;;;;;;;14.58;73.49;101513.31;4970778;28;20118;-73
2022/06/01 11:46:44;;;;;;;11.55;7.75;;;;;;;14.67;73.32;101510.00;4962921;28;20035;-75
2022/06/01 11:49:31;;;;;;;9.90;6.93;;;;;;;14.74;71.54;101506.63;4964970;28;20091;-74
2022/06/01 11:52:24;;;;;;;9.98;6.40;;;;;;;14.80;69.95;101503.22;4964950;28;20117;-75
2022/06/01 11:55:10;;;;;;;11.00;7.05;;;;;;;14.80;69.90;101501.47;4964021;28;20031;-74
2022/06/01 11:58:04;;;;;;;10.00;7.38;;;;;;;14.87;71.19;101505.09;4969038;28;20035;-74